Wytheville, Virginia
Current Conditions -  °F | °C
As of 4:35 AM on Saturday 25 Oct 2014 (Local Time) from KMKJ Reporting Station
Clear Clear  
Wind Chill: 35°   Ceiling: Unl
Heat Index: 38°   Visibility: 10mi
Dew Point: 36°   Wind: 5mph
Humidity: 91%   Direction: 240°WSW
Pressure: 30.08"   Gusts: NA
Location:  36.95°N, 81.08°W
Report Text: KMKJ 250835Z AUTO 24004KT 10SM CLR 04/02 A3008 RMK AO2 T00350022
Loading
Personal Weather Stations






























Interactive Weather Map New forecast layout! Learn more

10-Day Weather Forecast

Advertisements
Track Severe Weather on mobile